PST,Max TemperatureF,Mean TemperatureF,Min TemperatureF,Max Dew PointF,MeanDew PointF,Min DewpointF,Max Humidity, Mean Humidity, Min Humidity, Max Sea Level PressureIn, Mean Sea Level PressureIn, Min Sea Level PressureIn, Max VisibilityMiles, Mean VisibilityMiles, Min VisibilityMiles, Max Wind SpeedMPH, Mean Wind SpeedMPH, Max Gust SpeedMPH,PrecipitationIn, CloudCover, Events, WindDirDegrees
2014-1-1,31,31,30,31,30,29,100,96,92,30.46,30.41,30.32,0,0,0,9,5,10,0.00,,Fog,48
2014-1-2,39,35,30,33,30,28,100,85,70,30.35,30.13,29.77,10,6,0,22,6,26,0.01,8,Fog-Rain,145
2014-1-3,36,30,23,31,24,16,89,76,63,30.18,29.99,29.75,10,10,7,28,12,32,0.01,4,Fog-Rain-Snow,255
2014-1-4,36,28,20,20,16,13,81,60,38,30.42,30.34,30.19,10,10,10,22,11,26,0.00,2,,257
2014-1-5,34,25,15,18,16,11,84,68,51,30.63,30.57,30.43,10,10,10,7,1,8,0.00,3,,53
2014-1-6,30,23,16,18,16,13,84,71,58,30.54,30.40,30.22,10,10,10,12,6,14,0.00,6,,40
2014-1-7,28,26,23,26,21,16,92,80,68,30.21,30.14,30.05,10,6,1,8,5,10,0.18,8,Snow,53
2014-1-8,37,33,28,37,31,26,100,95,89,30.10,29.93,29.67,6,2,0,25,5,31,0.24,8,Fog-Rain-Snow,165
2014-1-9,36,33,30,35,30,28,100,88,75,29.93,29.82,29.67,10,6,0,23,13,26,0.08,7,Fog-Rain-Snow,200
2014-1-10,40,37,33,34,32,30,96,83,70,29.95,29.84,29.65,10,10,10,26,17,33,T,8,Rain,210
2014-1-11,47,41,35,37,33,29,85,71,57,29.73,29.48,29.40,10,10,6,44,27,56,0.07,7,Rain,205
2014-1-12,41,37,33,36,30,24,89,77,64,30.10,29.91,29.49,10,10,6,33,20,41,T,6,Rain,217
2014-1-13,46,41,35,35,34,32,89,75,60,30.52,30.26,30.10,10,10,10,39,24,48,0.00,6,,219
2014-1-14,45,38,30,36,33,29,100,85,70,30.65,30.57,30.49,10,9,6,13,6,15,0.00,6,,167
2014-1-15,44,35,26,32,29,24,92,75,58,30.51,30.48,30.41,10,8,0,8,4,,0.00,6,Fog,144
2014-1-16,31,28,25,27,26,24,100,93,85,30.61,30.54,30.46,0,0,0,10,4,12,0.00,8,Fog,38
2014-1-17,33,29,25,28,26,23,100,89,78,30.46,30.42,30.36,0,0,0,9,5,12,0.00,,Fog,38
2014-1-18,33,30,27,29,27,24,100,89,78,30.43,30.34,30.18,0,0,0,10,5,13,0.00,8,Fog,48
2014-1-19,31,29,27,30,26,25,100,93,85,30.43,30.27,30.13,10,3,0,9,4,14,0.00,8,Fog,51
2014-1-20,30,28,25,27,26,24,100,96,92,30.56,30.49,30.36,10,4,0,13,6,17,0.00,7,Fog,6
2014-1-21,29,28,26,26,25,24,100,93,85,30.51,30.44,30.31,0,0,0,9,3,11,T,8,Fog-Snow,36
2014-1-22,28,28,27,26,25,25,100,93,85,30.53,30.39,30.29,9,3,0,12,5,13,T,8,Fog-Snow,282
2014-1-23,29,28,27,27,27,26,100,96,92,30.65,30.59,30.48,7,1,0,10,4,12,T,8,Fog-Snow,15
2014-1-24,29,28,27,27,26,25,100,96,92,30.67,30.62,30.50,1,0,0,8,3,11,T,8,Fog-Snow,340
2014-1-25,29,27,25,27,25,23,100,96,92,30.57,30.46,30.29,10,5,1,8,3,10,T,8,Fog-Snow,192
2014-1-26,30,27,24,26,24,23,100,92,84,30.36,30.30,30.18,10,8,0,9,4,12,T,8,Snow,30
2014-1-27,28,26,23,26,25,21,100,93,85,30.44,30.36,30.21,10,3,0,8,2,9,T,8,Fog-Snow,274
2014-1-28,29,27,25,26,25,24,100,93,85,30.42,30.29,30.05,10,5,0,9,3,10,0.01,8,Snow,92
2014-1-29,29,26,23,28,26,23,100,96,92,30.08,29.76,29.61,9,1,0,16,6,19,0.38,8,Fog-Snow,313
2014-1-30,32,26,19,31,24,18,100,96,91,29.92,29.81,29.69,8,2,0,13,6,15,0.02,8,Fog-Snow,130
2014-1-31,32,23,13,25,20,10,100,88,75,30.13,30.00,29.85,10,6,0,10,4,12,0.01,6,Fog-Snow,269